Northmore Heights, Illinois
Current Conditions -  °F | °C
As of 1:15 PM on Friday 24 Oct 2014 (Local Time) from K1H2 Reporting Station
Broken Clouds Broken Clouds  
Wind Chill: 66°   Ceiling: 2600
Heat Index: 66°   Visibility: 10mi
Dew Point: 52°   Wind: 5mph
Humidity: 60%   Direction: 240°WSW
Pressure: 30.07"   Gusts: NA
Location:  39.1183°N, 88.6059°W
Report Text: K1H2 241815Z AUTO 24004KT 10SM BKN026 BKN032 19/11 A3007 RMK AO2 T01910112
Loading
Personal Weather Stations






























Interactive Weather Map
Tropical Storm Tracking
New forecast layout! Learn more

10-Day Weather Forecast

Advertisements
Track Severe Weather on mobile